createdAt,value
2018-05-02T00:01:27.413Z,8.88
2018-05-02T00:03:53.408Z,8.30
2018-05-02T00:06:19.428Z,8.50
2018-05-02T00:08:45.519Z,8.38
2018-05-02T00:11:11.547Z,8.73
2018-05-02T00:13:37.560Z,6.75
2018-05-02T00:16:03.640Z,8.27
2018-05-02T00:18:29.632Z,9.13
2018-05-02T00:20:55.740Z,8.60
2018-05-02T00:23:21.815Z,9.52
2018-05-02T00:25:47.832Z,8.90
2018-05-02T00:28:13.871Z,8.30
2018-05-02T00:30:39.876Z,8.75
2018-05-02T00:33:05.879Z,7.40
2018-05-02T00:35:31.925Z,10.25
2018-05-02T00:37:57.978Z,9.75
2018-05-02T00:40:24.023Z,6.70
2018-05-02T00:42:50.056Z,8.68
2018-05-02T00:45:16.095Z,9.38
2018-05-02T00:47:42.132Z,9.07
2018-05-02T00:50:08.152Z,8.55
2018-05-02T00:52:34.177Z,8.93
2018-05-02T00:55:00.328Z,9.02
2018-05-02T00:57:27.332Z,8.43
2018-05-02T00:59:53.354Z,8.18
2018-05-02T01:02:19.377Z,7.97
2018-05-02T01:04:45.381Z,9.02
2018-05-02T01:07:11.361Z,8.63
2018-05-02T01:09:37.381Z,8.15
2018-05-02T01:12:03.428Z,8.13
2018-05-02T01:14:29.438Z,8.23
2018-05-02T01:16:55.424Z,8.35
2018-05-02T01:19:21.486Z,8.55
2018-05-02T01:21:47.493Z,9.63
2018-05-02T01:24:13.474Z,8.35
2018-05-02T01:26:39.501Z,9.02
2018-05-02T01:29:05.493Z,9.07
2018-05-02T01:31:31.522Z,9.82
2018-05-02T01:33:57.590Z,9.77
2018-05-02T01:36:23.598Z,10.48
2018-05-02T01:38:49.597Z,11.40
2018-05-02T01:41:15.651Z,10.65
2018-05-02T01:43:41.674Z,11.50
2018-05-02T01:46:07.739Z,12.73
2018-05-02T01:48:34.739Z,11.63
2018-05-02T01:51:00.755Z,12.13
2018-05-02T01:53:26.744Z,12.77
2018-05-02T01:55:52.844Z,12.00
2018-05-02T01:58:18.916Z,12.50
2018-05-02T02:00:44.929Z,12.30
2018-05-02T02:03:10.941Z,9.80
2018-05-02T02:05:37.060Z,13.18
2018-05-02T02:08:03.059Z,14.57
2018-05-02T02:10:29.114Z,15.60
2018-05-02T02:12:55.194Z,16.27
2018-05-02T02:15:21.260Z,14.52
2018-05-02T02:17:47.263Z,15.80
2018-05-02T02:20:13.351Z,12.82
2018-05-02T02:22:39.361Z,16.80
2018-05-02T02:25:05.352Z,15.82
2018-05-02T02:27:31.395Z,15.85
2018-05-02T02:29:57.388Z,15.57
2018-05-02T02:32:23.435Z,17.08
2018-05-02T02:34:49.468Z,11.48
2018-05-02T02:37:15.485Z,16.73
2018-05-02T02:39:41.544Z,16.67
2018-05-02T02:42:07.545Z,17.10
2018-05-02T02:44:33.580Z,13.48
2018-05-02T02:46:59.624Z,16.98
2018-05-02T02:49:25.645Z,13.73
2018-05-02T02:51:51.720Z,15.70
2018-05-02T02:54:17.720Z,15.90
2018-05-02T02:56:43.724Z,13.43
2018-05-02T02:59:09.733Z,17.55
2018-05-02T03:01:35.730Z,13.93
2018-05-02T03:04:01.764Z,17.40
2018-05-02T03:06:27.796Z,16.77
2018-05-02T03:08:53.832Z,16.52
2018-05-02T03:11:19.849Z,16.12
2018-05-02T03:13:45.899Z,14.63
2018-05-02T03:16:11.991Z,17.25
2018-05-02T03:18:38.018Z,14.48
2018-05-02T03:21:04.087Z,15.98
2018-05-02T03:23:30.138Z,13.60
2018-05-02T03:25:56.155Z,17.05
2018-05-02T03:28:22.238Z,17.20
2018-05-02T03:30:48.809Z,17.85
2018-05-02T03:33:14.896Z,17.50
2018-05-02T03:35:41.158Z,18.12
2018-05-02T03:38:07.252Z,12.82
2018-05-02T03:40:33.370Z,16.37
2018-05-02T03:42:59.377Z,16.25
2018-05-02T03:45:25.444Z,16.45
2018-05-02T03:47:51.524Z,16.75
2018-05-02T03:50:17.602Z,13.10
2018-05-02T03:52:43.597Z,16.23
2018-05-02T03:55:09.602Z,16.37
2018-05-02T03:57:35.676Z,16.20
2018-05-02T04:00:13.979Z,16.20
2018-05-02T04:02:52.348Z,15.15
2018-05-02T04:05:30.688Z,11.90
2018-05-02T04:07:56.808Z,15.52
2018-05-02T04:10:22.844Z,15.23
2018-05-02T04:12:48.921Z,12.02
2018-05-02T04:15:15.067Z,14.38
2018-05-02T04:17:41.107Z,13.70
2018-05-02T04:20:07.198Z,11.07
2018-05-02T04:22:33.221Z,14.40
2018-05-02T04:24:59.284Z,10.48
2018-05-02T04:27:25.282Z,13.52
2018-05-02T04:29:51.276Z,13.38
2018-05-02T04:32:17.337Z,14.27
2018-05-02T04:34:43.361Z,12.85
2018-05-02T04:37:09.393Z,13.40
2018-05-02T04:39:35.389Z,13.60
2018-05-02T04:42:01.472Z,13.18
2018-05-02T04:44:27.504Z,13.40
2018-05-02T04:46:53.520Z,10.20
2018-05-02T04:49:19.542Z,12.35
2018-05-02T04:51:45.563Z,14.93
2018-05-02T04:54:11.592Z,14.35
2018-05-02T04:56:37.630Z,10.93
2018-05-02T04:59:03.665Z,14.50
2018-05-02T05:01:29.673Z,13.68
2018-05-02T05:03:55.687Z,13.68
2018-05-02T05:06:21.735Z,14.35
2018-05-02T05:08:47.756Z,14.60
2018-05-02T05:11:13.756Z,14.85
2018-05-02T05:13:39.784Z,12.25
2018-05-02T05:16:05.806Z,15.35
2018-05-02T05:18:31.844Z,11.40
2018-05-02T05:20:57.871Z,15.00
2018-05-02T05:23:23.868Z,11.73
2018-05-02T05:25:49.880Z,15.27
2018-05-02T05:28:16.022Z,11.68
2018-05-02T05:30:42.096Z,11.40
2018-05-02T05:33:08.092Z,14.77
2018-05-02T05:35:34.141Z,10.73
2018-05-02T05:38:00.195Z,14.02
2018-05-02T05:40:26.288Z,12.13
2018-05-02T05:42:52.360Z,14.45
2018-05-02T05:45:18.405Z,12.15
2018-05-02T05:47:44.468Z,14.52
2018-05-02T05:50:10.566Z,10.82
2018-05-02T05:52:36.589Z,14.10
2018-05-02T05:55:02.625Z,10.85
2018-05-02T05:57:29.137Z,13.30
2018-05-02T05:59:55.200Z,9.88
2018-05-02T06:02:21.292Z,10.38
2018-05-02T06:04:47.410Z,10.73
2018-05-02T06:07:13.422Z,10.15
2018-05-02T06:09:39.464Z,9.70
2018-05-02T06:12:05.486Z,8.10
2018-05-02T06:14:31.569Z,7.87
2018-05-02T06:16:57.638Z,8.40
2018-05-02T06:19:23.700Z,8.13
2018-05-02T06:21:54.286Z,7.90
2018-05-02T06:24:20.345Z,7.95
2018-05-02T06:26:46.404Z,7.45
2018-05-02T06:29:12.532Z,7.72
2018-05-02T06:31:38.775Z,7.78
2018-05-02T06:34:04.898Z,6.68
2018-05-02T06:36:30.982Z,6.53
2018-05-02T06:38:57.069Z,6.60
2018-05-02T06:41:23.213Z,6.05
2018-05-02T06:43:49.360Z,7.07
2018-05-02T06:46:15.456Z,6.40
2018-05-02T06:48:41.565Z,6.50
2018-05-02T06:51:07.649Z,5.85
2018-05-02T06:53:33.816Z,6.10
2018-05-02T06:55:59.923Z,5.57
2018-05-02T06:58:26.065Z,5.22
2018-05-02T07:00:52.258Z,5.78
2018-05-02T07:03:18.343Z,5.80
2018-05-02T07:05:44.486Z,5.62
2018-05-02T07:08:10.694Z,6.00
2018-05-02T07:10:36.878Z,6.13
2018-05-02T07:13:03.029Z,4.77
2018-05-02T07:15:29.185Z,5.10
2018-05-02T07:17:55.363Z,5.20
2018-05-02T07:20:21.486Z,4.75
2018-05-02T07:22:47.674Z,4.62
2018-05-02T07:25:14.706Z,5.10
2018-05-02T07:27:40.796Z,4.93
2018-05-02T07:30:07.025Z,4.87
2018-05-02T07:32:33.207Z,4.40
2018-05-02T07:34:59.263Z,4.43
2018-05-02T07:37:25.343Z,5.30
2018-05-02T07:39:51.391Z,4.27
2018-05-02T07:42:17.452Z,4.20
2018-05-02T07:44:43.537Z,4.00
2018-05-02T07:47:09.570Z,4.10
2018-05-02T07:49:35.657Z,3.53
2018-05-02T07:52:01.729Z,4.10
2018-05-02T07:54:27.877Z,3.77
2018-05-02T07:56:54.009Z,4.20
2018-05-02T07:59:20.153Z,4.00
2018-05-02T08:01:46.308Z,4.13
2018-05-02T08:04:12.363Z,3.60
2018-05-02T08:06:38.533Z,3.77
2018-05-02T08:09:04.772Z,3.37
2018-05-02T08:11:30.957Z,3.57
2018-05-02T08:13:57.238Z,3.63
2018-05-02T08:16:23.347Z,3.80
2018-05-02T08:18:49.429Z,3.90
2018-05-02T08:21:15.538Z,3.10
2018-05-02T08:23:41.668Z,3.63
2018-05-02T08:26:07.772Z,3.83
2018-05-02T08:28:33.839Z,3.50
2018-05-02T08:30:59.974Z,3.47
2018-05-02T08:33:26.544Z,3.23
2018-05-02T08:35:52.693Z,3.10
2018-05-02T08:38:18.750Z,3.27
2018-05-02T08:40:44.839Z,3.50
2018-05-02T08:43:11.918Z,3.40
2018-05-02T08:45:38.116Z,3.17
2018-05-02T08:48:04.202Z,3.03
2018-05-02T08:50:30.445Z,3.80
2018-05-02T08:52:56.493Z,3.57
2018-05-02T08:55:22.562Z,2.63
2018-05-02T08:57:49.546Z,3.13
2018-05-02T09:00:15.794Z,2.57
2018-05-02T09:02:41.827Z,2.70
2018-05-02T09:05:07.920Z,2.33
2018-05-02T09:07:33.976Z,3.07
2018-05-02T09:10:00.033Z,2.70
2018-05-02T09:12:26.095Z,2.97
2018-05-02T09:14:52.347Z,6.20
2018-05-02T09:17:18.395Z,3.10
2018-05-02T09:19:44.425Z,2.50
2018-05-02T09:22:10.551Z,2.50
2018-05-02T09:24:36.669Z,2.37
2018-05-02T09:27:02.798Z,2.30
2018-05-02T09:29:28.866Z,2.07
2018-05-02T09:31:55.037Z,2.30
2018-05-02T09:34:21.214Z,2.60
2018-05-02T09:36:47.323Z,2.67
2018-05-02T09:39:13.490Z,2.40
2018-05-02T09:41:39.608Z,2.60
2018-05-02T09:44:05.736Z,2.13
2018-05-02T09:46:31.711Z,2.23
2018-05-02T09:48:57.805Z,2.30
2018-05-02T09:51:23.875Z,2.40
2018-05-02T09:53:49.914Z,2.30
2018-05-02T09:56:16.026Z,2.60
2018-05-02T09:58:42.084Z,2.60
2018-05-02T10:01:08.745Z,2.10
2018-05-02T10:03:34.893Z,2.07
2018-05-02T10:06:01.207Z,2.40
2018-05-02T10:08:27.265Z,2.50
2018-05-02T10:10:53.317Z,2.30
2018-05-02T10:13:19.341Z,2.40
2018-05-02T10:15:45.401Z,2.40
2018-05-02T10:18:11.399Z,2.10
2018-05-02T10:20:37.429Z,2.10
2018-05-02T10:23:03.500Z,2.43
2018-05-02T10:25:29.531Z,2.57
2018-05-02T10:27:55.555Z,2.50
2018-05-02T10:30:21.593Z,2.63
2018-05-02T10:32:47.601Z,2.57
2018-05-02T10:35:13.623Z,2.67
2018-05-02T10:37:39.644Z,2.80
2018-05-02T10:40:05.646Z,2.60
2018-05-02T10:42:31.644Z,2.60
2018-05-02T10:44:57.652Z,2.80
2018-05-02T10:47:23.662Z,2.80
2018-05-02T10:49:49.671Z,2.97
2018-05-02T10:52:15.833Z,2.30
2018-05-02T10:54:41.923Z,2.50
2018-05-02T10:57:07.980Z,2.67
2018-05-02T10:59:34.034Z,2.40
2018-05-02T11:02:00.118Z,2.60
2018-05-02T11:04:26.173Z,2.37
2018-05-02T11:06:52.274Z,2.30
2018-05-02T11:09:18.326Z,3.00
2018-05-02T11:11:44.348Z,2.53
2018-05-02T11:14:10.441Z,2.33
2018-05-02T11:16:36.620Z,2.77
2018-05-02T11:19:02.660Z,3.20
2018-05-02T11:21:28.671Z,2.60
2018-05-02T11:23:54.799Z,2.40
2018-05-02T11:26:20.904Z,2.07
2018-05-02T11:28:46.940Z,2.33
2018-05-02T11:31:12.969Z,2.23
2018-05-02T11:33:38.991Z,2.30
2018-05-02T11:36:05.086Z,2.10
2018-05-02T11:38:31.120Z,2.50
2018-05-02T11:40:57.163Z,2.10
2018-05-02T11:43:23.276Z,2.60
2018-05-02T11:45:49.343Z,2.60
2018-05-02T11:48:15.405Z,2.30
2018-05-02T11:50:41.420Z,2.77
2018-05-02T11:53:07.557Z,2.40
2018-05-02T11:55:33.611Z,2.30
2018-05-02T11:57:59.606Z,2.67
2018-05-02T12:00:25.647Z,2.40
2018-05-02T12:02:51.654Z,2.30
2018-05-02T12:05:17.666Z,2.10
2018-05-02T12:07:43.719Z,2.37
2018-05-02T12:10:09.763Z,2.53
2018-05-02T12:12:35.831Z,2.50
2018-05-02T12:15:01.848Z,2.70
2018-05-02T12:17:27.882Z,2.50
2018-05-02T12:19:53.973Z,2.60
2018-05-02T12:22:20.017Z,2.80
2018-05-02T12:24:46.059Z,2.13
2018-05-02T12:27:12.151Z,2.30
2018-05-02T12:29:38.201Z,2.70
2018-05-02T12:32:04.212Z,2.20
2018-05-02T12:34:30.235Z,2.60
2018-05-02T12:36:56.455Z,2.80
2018-05-02T12:39:22.480Z,2.90
2018-05-02T12:41:48.508Z,2.80
2018-05-02T12:44:15.372Z,2.50
2018-05-02T12:46:41.509Z,2.47
2018-05-02T12:49:07.513Z,2.87
2018-05-02T12:51:34.133Z,2.30
2018-05-02T12:54:00.167Z,2.03
2018-05-02T12:56:26.175Z,2.20
2018-05-02T12:58:52.354Z,2.40
2018-05-02T13:01:18.466Z,2.10
2018-05-02T13:03:44.541Z,2.40
2018-05-02T13:06:10.570Z,2.27
2018-05-02T13:08:36.737Z,2.20
2018-05-02T13:11:02.817Z,2.23
2018-05-02T13:13:28.906Z,2.00
2018-05-02T13:15:54.959Z,2.40
2018-05-02T13:18:21.008Z,2.10
2018-05-02T13:20:47.714Z,2.07
2018-05-02T13:23:13.769Z,2.03
2018-05-02T13:25:39.790Z,2.13
2018-05-02T13:28:05.816Z,2.10
2018-05-02T13:30:31.811Z,1.87
2018-05-02T13:32:57.876Z,2.83
2018-05-02T13:35:23.902Z,2.80
2018-05-02T13:37:49.945Z,2.63
2018-05-02T13:40:16.052Z,5.57
2018-05-02T13:42:42.181Z,2.40
2018-05-02T13:45:08.195Z,2.47
2018-05-02T13:47:34.268Z,2.90
2018-05-02T13:50:00.433Z,4.33
2018-05-02T13:52:26.496Z,2.50
2018-05-02T13:54:52.604Z,2.43
2018-05-02T13:57:18.775Z,2.80
2018-05-02T13:59:44.896Z,2.30
2018-05-02T14:02:10.949Z,2.67
2018-05-02T14:04:37.045Z,2.10
2018-05-02T14:07:03.182Z,2.80
2018-05-02T14:09:29.390Z,2.50
2018-05-02T14:11:55.489Z,2.90
2018-05-02T14:15:39.074Z,15.00
2018-05-02T14:18:05.128Z,2.77
2018-05-02T14:20:31.163Z,2.90
2018-05-02T14:22:57.189Z,2.40
2018-05-02T14:25:23.209Z,2.60
2018-05-02T14:27:52.095Z,2.33
2018-05-02T14:30:18.118Z,2.47
2018-05-02T14:32:44.176Z,2.80
2018-05-02T14:35:10.158Z,2.70
2018-05-02T14:37:36.190Z,2.60
2018-05-02T14:40:02.336Z,2.63
2018-05-02T14:42:28.329Z,2.70
2018-05-02T14:44:54.381Z,2.97
2018-05-02T14:47:21.180Z,2.77
2018-05-02T14:49:47.678Z,3.83
2018-05-02T14:52:13.706Z,8.67
2018-05-02T14:54:39.747Z,5.10
2018-05-02T14:57:05.788Z,2.93
2018-05-02T14:59:31.863Z,3.27
2018-05-02T15:01:57.941Z,2.90
2018-05-02T15:04:23.936Z,2.60
2018-05-02T15:06:49.923Z,3.10
2018-05-02T15:09:15.924Z,2.80
2018-05-02T15:11:41.896Z,2.50
2018-05-02T15:14:07.885Z,2.70
2018-05-02T15:16:34.073Z,2.60
2018-05-02T15:19:00.089Z,2.63
2018-05-02T15:21:26.141Z,3.20
2018-05-02T15:23:52.197Z,2.47
2018-05-02T15:26:18.208Z,2.50
2018-05-02T15:28:44.331Z,2.40
2018-05-02T15:31:10.353Z,2.80
2018-05-02T15:33:36.416Z,3.13
2018-05-02T15:36:02.531Z,3.33
2018-05-02T15:38:29.131Z,2.57
2018-05-02T15:40:55.166Z,2.77
2018-05-02T15:43:21.167Z,4.87
2018-05-02T15:45:47.187Z,2.73
2018-05-02T15:48:13.229Z,2.57
2018-05-02T15:50:39.297Z,2.90
2018-05-02T15:53:05.302Z,2.30
2018-05-02T15:55:31.319Z,2.63
2018-05-02T15:57:57.494Z,2.80
2018-05-02T16:00:24.195Z,2.87
2018-05-02T16:02:50.334Z,2.60
2018-05-02T16:05:16.514Z,2.73
2018-05-02T16:07:42.517Z,2.60
2018-05-02T16:10:08.725Z,2.60
2018-05-02T16:12:35.498Z,2.57
2018-05-02T16:15:01.629Z,2.70
2018-05-02T16:17:27.680Z,3.10
2018-05-02T16:19:53.798Z,3.20
2018-05-02T16:22:19.845Z,3.27
2018-05-02T16:24:45.896Z,2.90
2018-05-02T16:27:11.892Z,3.10
2018-05-02T16:29:37.961Z,3.30
2018-05-02T16:32:03.997Z,3.67
2018-05-02T16:34:30.047Z,3.30
2018-05-02T16:36:56.230Z,3.77
2018-05-02T16:39:22.308Z,4.00
2018-05-02T16:41:48.418Z,4.40
2018-05-02T16:44:14.536Z,5.03
2018-05-02T16:46:40.553Z,5.80
2018-05-02T16:49:06.560Z,5.60
2018-05-02T16:51:32.634Z,6.57
2018-05-02T16:53:58.761Z,6.73
2018-05-02T16:56:24.763Z,7.87
2018-05-02T16:58:57.842Z,7.97
2018-05-02T17:01:23.938Z,8.50
2018-05-02T17:03:49.971Z,9.37
2018-05-02T17:06:16.015Z,8.73
2018-05-02T17:08:42.067Z,9.20
2018-05-02T17:11:08.269Z,9.50
2018-05-02T17:13:34.465Z,10.03
2018-05-02T17:16:00.565Z,9.97
2018-05-02T17:18:26.616Z,10.77
2018-05-02T17:20:52.625Z,11.10
2018-05-02T17:23:18.701Z,11.07
2018-05-02T17:25:44.778Z,12.00
2018-05-02T17:28:10.932Z,11.83
2018-05-02T17:30:37.106Z,11.27
2018-05-02T17:33:03.096Z,12.57
2018-05-02T17:35:29.195Z,12.23
2018-05-02T17:37:55.439Z,11.87
2018-05-02T17:40:21.469Z,11.80
2018-05-02T17:42:47.515Z,11.20
2018-05-02T17:45:13.551Z,11.90
2018-05-02T17:47:39.552Z,11.20
2018-05-02T17:50:05.573Z,11.40
2018-05-02T17:52:31.598Z,11.07
2018-05-02T17:54:57.687Z,11.60
2018-05-02T17:57:23.745Z,11.57
2018-05-02T17:59:49.821Z,11.27
2018-05-02T18:02:15.852Z,11.13
2018-05-02T18:04:41.954Z,11.20
2018-05-02T18:07:08.025Z,10.60
2018-05-02T18:09:34.154Z,11.80
2018-05-02T18:12:00.205Z,11.10
2018-05-02T18:14:26.238Z,11.23
2018-05-02T18:16:52.308Z,11.17
2018-05-02T18:19:18.613Z,11.10
2018-05-02T18:21:44.771Z,11.97
2018-05-02T18:24:11.031Z,11.83
2018-05-02T18:26:37.146Z,12.02
2018-05-02T18:29:03.174Z,12.75
2018-05-02T18:31:29.217Z,12.27
2018-05-02T18:33:55.337Z,13.37
2018-05-02T18:36:21.407Z,12.93
2018-05-02T18:38:47.409Z,11.30
2018-05-02T18:41:13.434Z,13.20
2018-05-02T18:43:39.596Z,12.75
2018-05-02T18:46:05.702Z,13.00
2018-05-02T18:48:31.708Z,10.87
2018-05-02T18:50:57.716Z,10.93
2018-05-02T18:53:23.770Z,10.45
2018-05-02T18:55:49.832Z,10.55
2018-05-02T18:58:15.872Z,9.47
2018-05-02T19:00:42.390Z,7.07
2018-05-02T19:03:08.498Z,6.30
2018-05-02T19:05:34.500Z,7.50
2018-05-02T19:08:00.516Z,7.97
2018-05-02T19:10:26.604Z,8.95
2018-05-02T19:12:52.748Z,9.20
2018-05-02T19:15:18.803Z,8.73
2018-05-02T19:17:51.087Z,9.77
2018-05-02T19:20:23.306Z,8.98
2018-05-02T19:22:49.347Z,10.10
2018-05-02T19:25:21.637Z,9.43
2018-05-02T19:27:48.287Z,9.45
2018-05-02T19:30:14.519Z,9.23
2018-05-02T19:32:47.261Z,8.38
2018-05-02T19:35:13.347Z,8.48
2018-05-02T19:37:39.440Z,8.52
2018-05-02T19:40:11.564Z,8.05
2018-05-02T19:45:42.776Z,7.53
2018-05-02T19:48:10.529Z,8.35
2018-05-02T19:50:37.280Z,7.75
2018-05-02T19:53:03.297Z,7.85
2018-05-02T19:55:29.327Z,7.12
2018-05-02T19:57:55.382Z,7.32
2018-05-02T20:00:27.494Z,6.93
2018-05-02T20:02:59.532Z,6.75
2018-05-02T20:05:25.590Z,7.70
2018-05-02T20:07:51.662Z,7.57
2018-05-02T20:10:23.845Z,7.77
2018-05-02T20:12:55.727Z,7.57
2018-05-02T20:15:21.768Z,11.93
2018-05-02T20:17:47.784Z,26.77
2018-05-02T20:20:14.083Z,8.68
2018-05-02T20:22:40.142Z,7.63
2018-05-02T20:25:06.304Z,7.13
2018-05-02T20:27:32.415Z,6.70
2018-05-02T20:29:58.471Z,6.33
2018-05-02T20:32:24.516Z,6.47
2018-05-02T20:34:50.575Z,6.30
2018-05-02T20:37:16.649Z,4.90
2018-05-02T20:39:42.799Z,4.30
2018-05-02T20:42:08.843Z,4.47
2018-05-02T20:44:34.892Z,4.15
2018-05-02T20:47:00.956Z,4.15
2018-05-02T20:49:27.132Z,4.20
2018-05-02T20:51:53.097Z,4.25
2018-05-02T20:54:19.130Z,4.07
2018-05-02T20:56:45.266Z,4.50
2018-05-02T20:59:11.419Z,4.30
2018-05-02T21:01:37.471Z,3.87
2018-05-02T21:04:03.517Z,4.28
2018-05-02T21:06:29.561Z,3.80
2018-05-02T21:08:55.590Z,4.37
2018-05-02T21:11:21.670Z,3.95
2018-05-02T21:13:47.714Z,3.67
2018-05-02T21:16:13.740Z,3.72
2018-05-02T21:18:39.781Z,4.25
2018-05-02T21:21:05.800Z,4.40
2018-05-02T21:23:31.822Z,3.90
2018-05-02T21:25:57.848Z,4.12
2018-05-02T21:28:23.892Z,4.28
2018-05-02T21:30:49.971Z,5.68
2018-05-02T21:33:16.001Z,4.50
2018-05-02T21:35:42.045Z,4.22
2018-05-02T21:38:08.983Z,4.10
2018-05-02T21:40:35.240Z,4.22
2018-05-02T21:43:01.289Z,3.80
2018-05-02T21:45:27.314Z,4.22
2018-05-02T21:47:53.459Z,3.50
2018-05-02T21:50:19.534Z,3.42
2018-05-02T21:52:45.604Z,3.92
2018-05-02T21:55:11.689Z,3.95
2018-05-02T21:57:37.726Z,4.55
2018-05-02T22:00:03.848Z,3.83
2018-05-02T22:02:29.945Z,4.00
2018-05-02T22:04:55.986Z,4.03
2018-05-02T22:07:22.045Z,4.03
2018-05-02T22:09:48.059Z,3.53
2018-05-02T22:12:14.091Z,4.05
2018-05-02T22:14:40.128Z,3.83
2018-05-02T22:17:06.141Z,4.10
2018-05-02T22:19:32.213Z,4.53
2018-05-02T22:21:58.293Z,4.28
2018-05-02T22:24:24.651Z,4.60
2018-05-02T22:26:50.687Z,4.28
2018-05-02T22:29:16.697Z,4.20
2018-05-02T22:31:42.754Z,4.35
2018-05-02T22:34:09.399Z,4.25
2018-05-02T22:36:35.492Z,4.03
2018-05-02T22:39:01.516Z,4.50
2018-05-02T22:41:27.545Z,3.92
2018-05-02T22:43:53.569Z,3.97
2018-05-02T22:46:19.575Z,4.75
2018-05-02T22:48:45.621Z,4.32
2018-05-02T22:51:11.669Z,4.50
2018-05-02T22:53:37.668Z,4.32
2018-05-02T22:56:03.705Z,4.65
2018-05-02T22:58:29.702Z,4.47
2018-05-02T23:00:55.728Z,4.70
2018-05-02T23:03:21.786Z,4.28
2018-05-02T23:05:47.803Z,3.60
2018-05-02T23:08:13.809Z,4.20
2018-05-02T23:10:39.816Z,3.50
2018-05-02T23:13:05.824Z,3.53
2018-05-02T23:15:31.892Z,3.80
2018-05-02T23:17:57.988Z,3.78
2018-05-02T23:20:24.050Z,3.80
